createdAt,value
2018-10-07T00:00:04.833Z,15.42
2018-10-07T00:01:04.837Z,15.29
2018-10-07T00:02:04.820Z,15.39
2018-10-07T00:03:04.831Z,15.47
2018-10-07T00:04:04.829Z,15.46
2018-10-07T00:05:04.819Z,15.51
2018-10-07T00:06:04.820Z,15.61
2018-10-07T00:07:04.836Z,15.70
2018-10-07T00:08:04.851Z,15.68
2018-10-07T00:09:04.827Z,15.77
2018-10-07T00:10:04.834Z,15.70
2018-10-07T00:11:04.835Z,15.64
2018-10-07T00:12:04.824Z,15.70
2018-10-07T00:13:04.824Z,15.64
2018-10-07T00:14:04.823Z,15.67
2018-10-07T00:15:04.825Z,15.73
2018-10-07T00:16:04.823Z,15.64
2018-10-07T00:17:04.834Z,15.73
2018-10-07T00:18:04.826Z,15.67
2018-10-07T00:19:04.823Z,15.67
2018-10-07T00:20:04.825Z,15.70
2018-10-07T00:21:04.828Z,15.62
2018-10-07T00:22:04.828Z,15.67
2018-10-07T00:23:04.839Z,15.67
2018-10-07T00:24:04.829Z,15.68
2018-10-07T00:25:04.840Z,15.61
2018-10-07T00:26:04.840Z,15.67
2018-10-07T00:27:04.837Z,15.61
2018-10-07T00:28:04.830Z,15.68
2018-10-07T00:29:04.842Z,15.61
2018-10-07T00:30:04.828Z,15.65
2018-10-07T00:31:04.832Z,15.64
2018-10-07T00:32:04.841Z,15.62
2018-10-07T00:33:04.831Z,15.61
2018-10-07T00:34:04.839Z,15.65
2018-10-07T00:35:04.844Z,15.68
2018-10-07T00:36:04.831Z,15.73
2018-10-07T00:37:04.853Z,15.67
2018-10-07T00:38:04.828Z,15.61
2018-10-07T00:39:04.833Z,15.67
2018-10-07T00:40:04.832Z,15.65
2018-10-07T00:41:04.847Z,15.62
2018-10-07T00:42:04.844Z,15.65
2018-10-07T00:43:04.836Z,15.62
2018-10-07T00:44:04.833Z,15.65
2018-10-07T00:45:04.831Z,15.57
2018-10-07T00:46:04.843Z,15.68
2018-10-07T00:47:04.835Z,15.62
2018-10-07T00:48:04.845Z,15.62
2018-10-07T00:49:04.834Z,15.54
2018-10-07T00:50:04.834Z,15.61
2018-10-07T00:51:04.835Z,15.55
2018-10-07T00:52:04.837Z,15.55
2018-10-07T00:53:04.849Z,15.61
2018-10-07T00:54:04.852Z,15.49
2018-10-07T00:55:04.850Z,15.49
2018-10-07T00:56:04.846Z,15.46
2018-10-07T00:57:04.836Z,15.44
2018-10-07T00:58:04.871Z,15.47
2018-10-07T00:59:04.853Z,15.46
2018-10-07T01:00:04.838Z,15.35
2018-10-07T01:01:04.837Z,15.39
2018-10-07T01:02:04.840Z,15.42
2018-10-07T01:03:04.850Z,15.37
2018-10-07T01:04:04.844Z,15.37
2018-10-07T01:05:04.839Z,15.37
2018-10-07T01:06:04.852Z,15.37
2018-10-07T01:07:04.853Z,15.36
2018-10-07T01:08:04.844Z,15.35
2018-10-07T01:09:04.853Z,15.39
2018-10-07T01:10:04.852Z,15.39
2018-10-07T01:11:04.846Z,15.42
2018-10-07T01:12:04.863Z,15.42
2018-10-07T01:13:04.841Z,15.40
2018-10-07T01:14:04.841Z,15.37
2018-10-07T01:15:04.853Z,15.36
2018-10-07T01:16:04.847Z,15.36
2018-10-07T01:17:04.846Z,15.29
2018-10-07T01:18:04.888Z,15.22
2018-10-07T01:19:04.844Z,15.31
2018-10-07T01:20:04.842Z,15.33
2018-10-07T01:21:04.852Z,15.25
2018-10-07T01:22:04.845Z,15.24
2018-10-07T01:23:04.843Z,15.27
2018-10-07T01:24:04.871Z,15.22
2018-10-07T01:25:04.849Z,15.27
2018-10-07T01:26:04.846Z,15.27
2018-10-07T01:27:04.856Z,15.27
2018-10-07T01:28:04.863Z,15.24
2018-10-07T01:29:04.858Z,15.21
2018-10-07T01:30:04.846Z,15.24
2018-10-07T01:31:04.858Z,15.25
2018-10-07T01:32:04.850Z,15.22
2018-10-07T01:33:04.865Z,15.17
2018-10-07T01:34:04.871Z,15.17
2018-10-07T01:35:04.848Z,15.19
2018-10-07T01:36:04.865Z,15.14
2018-10-07T01:37:04.871Z,15.07
2018-10-07T01:38:04.860Z,15.06
2018-10-07T01:39:04.851Z,15.06
2018-10-07T01:40:04.861Z,15.07
2018-10-07T01:41:04.861Z,15.10
2018-10-07T01:42:04.851Z,15.15
2018-10-07T01:43:05.065Z,15.18
2018-10-07T01:44:04.851Z,15.17
2018-10-07T01:45:04.864Z,15.22
2018-10-07T01:46:04.862Z,15.19
2018-10-07T01:47:04.879Z,15.22
2018-10-07T01:48:04.863Z,15.22
2018-10-07T01:49:04.852Z,15.15
2018-10-07T01:50:04.854Z,15.21
2018-10-07T01:51:04.867Z,15.22
2018-10-07T01:52:04.853Z,15.22
2018-10-07T01:53:04.867Z,15.19
2018-10-07T01:54:04.853Z,15.22
2018-10-07T01:55:04.852Z,15.24
2018-10-07T01:56:04.884Z,15.27
2018-10-07T01:57:05.058Z,15.28
2018-10-07T01:58:04.865Z,15.15
2018-10-07T01:59:05.068Z,15.19
2018-10-07T02:00:05.058Z,15.17
2018-10-07T02:01:05.058Z,15.18
2018-10-07T02:02:05.068Z,15.07
2018-10-07T02:03:05.068Z,15.10
2018-10-07T02:04:04.854Z,15.07
2018-10-07T02:05:05.085Z,15.00
2018-10-07T02:06:04.855Z,15.02
2018-10-07T02:07:04.855Z,14.99
2018-10-07T02:08:04.868Z,15.06
2018-10-07T02:09:04.862Z,15.00
2018-10-07T02:10:04.868Z,14.85
2018-10-07T02:11:04.853Z,14.94
2018-10-07T02:12:05.058Z,14.89
2018-10-07T02:13:04.865Z,14.91
2018-10-07T02:14:04.913Z,14.96
2018-10-07T02:15:04.883Z,14.92
2018-10-07T02:16:04.868Z,14.84
2018-10-07T02:17:05.055Z,14.82
2018-10-07T02:18:04.851Z,14.88
2018-10-07T02:19:04.874Z,14.86
2018-10-07T02:20:04.853Z,14.88
2018-10-07T02:21:04.876Z,14.86
2018-10-07T02:22:04.852Z,14.91
2018-10-07T02:23:04.852Z,14.82
2018-10-07T02:24:04.852Z,14.91
2018-10-07T02:25:04.862Z,14.91
2018-10-07T02:26:04.869Z,14.79
2018-10-07T02:27:05.055Z,14.89
2018-10-07T02:28:04.854Z,14.91
2018-10-07T02:29:04.851Z,14.91
2018-10-07T02:30:04.851Z,14.91
2018-10-07T02:31:04.863Z,14.82
2018-10-07T02:32:04.848Z,14.91
2018-10-07T02:33:05.072Z,14.85
2018-10-07T02:34:04.859Z,14.96
2018-10-07T02:35:05.062Z,14.78
2018-10-07T02:36:05.070Z,14.88
2018-10-07T02:37:04.865Z,14.85
2018-10-07T02:38:04.873Z,14.79
2018-10-07T02:39:04.861Z,14.82
2018-10-07T02:40:04.855Z,14.86
2018-10-07T02:41:05.047Z,14.85
2018-10-07T02:42:04.846Z,14.94
2018-10-07T02:43:04.854Z,14.89
2018-10-07T02:44:04.854Z,14.85
2018-10-07T02:45:04.856Z,14.86
2018-10-07T02:46:04.845Z,14.91
2018-10-07T02:47:04.857Z,14.92
2018-10-07T02:48:05.049Z,14.88
2018-10-07T02:49:04.853Z,14.89
2018-10-07T02:50:04.861Z,14.86
2018-10-07T02:51:04.841Z,14.86
2018-10-07T02:52:04.841Z,14.94
2018-10-07T02:53:04.881Z,14.97
2018-10-07T02:54:05.054Z,14.84
2018-10-07T02:55:04.839Z,14.88
2018-10-07T02:56:05.042Z,14.86
2018-10-07T02:57:05.041Z,14.94
2018-10-07T02:58:04.846Z,14.91
2018-10-07T02:59:05.041Z,14.91
2018-10-07T03:00:04.852Z,14.89
2018-10-07T03:01:05.039Z,14.88
2018-10-07T03:02:05.040Z,14.96
2018-10-07T03:03:05.060Z,15.00
2018-10-07T03:04:05.040Z,14.94
2018-10-07T03:05:04.835Z,14.86
2018-10-07T03:06:04.835Z,14.88
2018-10-07T03:07:04.847Z,14.94
2018-10-07T03:08:05.048Z,14.89
2018-10-07T03:09:04.836Z,14.92
2018-10-07T03:10:04.842Z,14.85
2018-10-07T03:11:05.048Z,14.86
2018-10-07T03:12:04.841Z,14.89
2018-10-07T03:13:04.832Z,14.89
2018-10-07T03:14:04.841Z,14.91
2018-10-07T03:15:04.832Z,14.88
2018-10-07T03:16:04.832Z,14.91
2018-10-07T03:17:04.841Z,15.02
2018-10-07T03:18:05.045Z,15.00
2018-10-07T03:19:05.038Z,14.99
2018-10-07T03:20:04.828Z,14.96
2018-10-07T03:21:05.030Z,14.97
2018-10-07T03:22:05.033Z,15.00
2018-10-07T03:23:04.839Z,14.97
2018-10-07T03:24:04.836Z,14.94
2018-10-07T03:25:04.826Z,14.94
2018-10-07T03:26:04.823Z,14.99
2018-10-07T03:27:04.834Z,14.89
2018-10-07T03:28:04.843Z,14.85
2018-10-07T03:29:04.832Z,14.92
2018-10-07T03:30:04.830Z,14.85
2018-10-07T03:31:05.048Z,14.88
2018-10-07T03:32:04.834Z,14.97
2018-10-07T03:33:04.821Z,14.94
2018-10-07T03:34:04.834Z,14.88
2018-10-07T03:35:04.824Z,14.94
2018-10-07T03:36:05.023Z,14.91
2018-10-07T03:37:04.831Z,14.92
2018-10-07T03:38:05.026Z,14.91
2018-10-07T03:39:04.830Z,14.96
2018-10-07T03:40:04.837Z,14.89
2018-10-07T03:41:05.035Z,14.92
2018-10-07T03:42:04.818Z,14.94
2018-10-07T03:43:04.822Z,14.92
2018-10-07T03:44:04.817Z,14.86
2018-10-07T03:45:04.816Z,14.96
2018-10-07T03:46:04.818Z,14.94
2018-10-07T03:47:04.827Z,14.89
2018-10-07T03:48:04.834Z,14.91
2018-10-07T03:49:04.842Z,14.88
2018-10-07T03:50:04.816Z,14.91
2018-10-07T03:51:04.815Z,14.89
2018-10-07T03:52:04.822Z,14.88
2018-10-07T03:53:04.834Z,14.82
2018-10-07T03:54:04.815Z,14.96
2018-10-07T03:55:04.811Z,14.97
2018-10-07T03:56:04.823Z,14.86
2018-10-07T03:57:04.826Z,14.94
2018-10-07T03:58:04.814Z,14.89
2018-10-07T03:59:04.838Z,14.91
2018-10-07T04:00:05.013Z,14.89
2018-10-07T04:01:04.810Z,14.92
2018-10-07T04:02:04.814Z,14.94
2018-10-07T04:03:04.823Z,14.89
2018-10-07T04:04:05.015Z,14.94
2018-10-07T04:05:04.819Z,14.94
2018-10-07T04:06:04.821Z,14.94
2018-10-07T04:07:04.824Z,14.82
2018-10-07T04:08:04.821Z,14.96
2018-10-07T04:09:04.816Z,14.89
2018-10-07T04:10:04.803Z,14.91
2018-10-07T04:11:05.011Z,14.85
2018-10-07T04:12:04.820Z,14.84
2018-10-07T04:13:05.023Z,14.89
2018-10-07T04:14:04.814Z,14.84
2018-10-07T04:15:04.803Z,14.82
2018-10-07T04:16:04.802Z,14.78
2018-10-07T04:17:04.802Z,14.79
2018-10-07T04:18:04.802Z,14.88
2018-10-07T04:19:04.813Z,14.82
2018-10-07T04:20:04.816Z,14.77
2018-10-07T04:21:04.817Z,14.70
2018-10-07T04:22:04.802Z,14.70
2018-10-07T04:23:04.799Z,14.68
2018-10-07T04:24:04.801Z,14.54
2018-10-07T04:25:04.811Z,14.53
2018-10-07T04:26:05.000Z,14.50
2018-10-07T04:27:04.795Z,14.43
2018-10-07T04:28:04.813Z,14.35
2018-10-07T04:29:04.807Z,14.32
2018-10-07T04:30:05.009Z,14.20
2018-10-07T04:31:04.795Z,14.14
2018-10-07T04:32:04.997Z,14.11
2018-10-07T04:33:04.794Z,14.04
2018-10-07T04:34:04.793Z,14.08
2018-10-07T04:35:04.792Z,13.99
2018-10-07T04:36:05.007Z,13.95
2018-10-07T04:37:04.993Z,13.93
2018-10-07T04:38:05.006Z,13.89
2018-10-07T04:39:04.805Z,13.96
2018-10-07T04:40:04.794Z,13.93
2018-10-07T04:41:04.787Z,13.86
2018-10-07T04:42:04.790Z,13.85
2018-10-07T04:43:04.787Z,13.90
2018-10-07T04:44:04.797Z,13.90
2018-10-07T04:45:04.789Z,13.89
2018-10-07T04:46:04.797Z,13.86
2018-10-07T04:47:04.784Z,13.81
2018-10-07T04:48:04.986Z,13.87
2018-10-07T04:49:04.792Z,13.78
2018-10-07T04:50:04.792Z,13.83
2018-10-07T04:51:04.800Z,13.75
2018-10-07T04:52:04.789Z,13.71
2018-10-07T04:53:04.777Z,13.70
2018-10-07T04:54:04.790Z,13.79
2018-10-07T04:55:04.790Z,13.63
2018-10-07T04:56:04.777Z,13.62
2018-10-07T04:57:04.775Z,13.54
2018-10-07T04:58:04.786Z,13.62
2018-10-07T04:59:04.775Z,13.50
2018-10-07T05:00:04.810Z,13.52
2018-10-07T05:01:04.774Z,13.49
2018-10-07T05:02:04.773Z,13.35
2018-10-07T05:03:04.771Z,13.30
2018-10-07T05:04:04.782Z,13.25
2018-10-07T05:05:04.771Z,13.20
2018-10-07T05:06:04.781Z,13.16
2018-10-07T05:07:04.768Z,13.23
2018-10-07T05:08:04.780Z,13.09
2018-10-07T05:09:04.777Z,13.20
2018-10-07T05:10:04.772Z,13.16
2018-10-07T05:11:04.772Z,13.09
2018-10-07T05:12:04.831Z,13.11
2018-10-07T05:13:04.960Z,13.00
2018-10-07T05:14:04.756Z,13.13
2018-10-07T05:15:04.756Z,13.08
2018-10-07T05:16:04.765Z,13.00
2018-10-07T05:17:04.769Z,13.00
2018-10-07T05:18:04.751Z,12.97
2018-10-07T05:19:04.764Z,12.95
2018-10-07T05:20:04.767Z,12.90
2018-10-07T05:21:04.812Z,12.94
2018-10-07T05:22:04.948Z,12.91
2018-10-07T05:23:04.746Z,12.94
2018-10-07T05:24:04.950Z,12.93
2018-10-07T05:25:04.946Z,12.85
2018-10-07T05:26:04.746Z,12.80
2018-10-07T05:27:04.946Z,12.95
2018-10-07T05:28:04.953Z,12.93
2018-10-07T05:29:04.737Z,12.76
2018-10-07T05:30:04.952Z,12.83
2018-10-07T05:31:04.752Z,12.79
2018-10-07T05:32:04.734Z,12.73
2018-10-07T05:33:04.801Z,12.80
2018-10-07T05:34:04.742Z,12.78
2018-10-07T05:35:04.745Z,12.73
2018-10-07T05:36:04.746Z,12.64
2018-10-07T05:37:04.742Z,12.78
2018-10-07T05:38:04.729Z,12.72
2018-10-07T05:39:04.748Z,12.65
2018-10-07T05:40:04.728Z,12.64
2018-10-07T05:41:04.746Z,12.68
2018-10-07T05:42:04.729Z,12.58
2018-10-07T05:43:04.934Z,12.61
2018-10-07T05:44:04.735Z,12.62
2018-10-07T05:45:04.723Z,12.65
2018-10-07T05:46:04.731Z,12.62
2018-10-07T05:47:04.727Z,12.64
2018-10-07T05:48:04.730Z,12.50
2018-10-07T05:49:04.712Z,12.61
2018-10-07T05:50:04.722Z,12.40
2018-10-07T05:51:04.912Z,12.43
2018-10-07T05:52:04.719Z,12.40
2018-10-07T05:53:04.909Z,12.40
2018-10-07T05:54:04.709Z,12.46
2018-10-07T05:55:04.705Z,12.37
2018-10-07T05:56:04.920Z,12.40
2018-10-07T05:57:04.914Z,12.37
2018-10-07T05:58:04.712Z,12.43
2018-10-07T05:59:04.699Z,12.35
2018-10-07T06:00:04.697Z,12.46
2018-10-07T06:01:04.695Z,12.36
2018-10-07T06:02:04.950Z,12.32
2018-10-07T06:03:04.694Z,12.40
2018-10-07T06:04:04.690Z,12.42
2018-10-07T06:05:04.689Z,12.35
2018-10-07T06:06:04.891Z,12.53
2018-10-07T06:07:04.702Z,12.43
2018-10-07T06:08:04.695Z,12.53
2018-10-07T06:09:04.693Z,12.55
2018-10-07T06:10:04.894Z,12.50
2018-10-07T06:11:04.693Z,12.54
2018-10-07T06:12:04.707Z,12.57
2018-10-07T06:13:04.695Z,12.54
2018-10-07T06:14:04.692Z,12.53
2018-10-07T06:15:04.677Z,12.50
2018-10-07T06:16:04.677Z,12.53
2018-10-07T06:17:04.686Z,12.55
2018-10-07T06:18:04.673Z,12.53
2018-10-07T06:19:04.673Z,12.50
2018-10-07T06:20:04.694Z,12.62
2018-10-07T06:21:04.884Z,12.50
2018-10-07T06:22:04.667Z,12.50
2018-10-07T06:23:04.664Z,12.50
2018-10-07T06:24:04.674Z,12.54
2018-10-07T06:25:04.672Z,12.49
2018-10-07T06:26:04.870Z,12.50
2018-10-07T06:27:04.665Z,12.57
2018-10-07T06:28:04.658Z,12.54
2018-10-07T06:29:04.684Z,12.53
2018-10-07T06:30:04.668Z,12.50
2018-10-07T06:31:04.655Z,12.50
2018-10-07T06:32:04.667Z,12.43
2018-10-07T06:33:04.666Z,12.49
2018-10-07T06:34:04.652Z,12.53
2018-10-07T06:35:04.650Z,12.40
2018-10-07T06:36:04.852Z,12.37
2018-10-07T06:37:04.850Z,12.32
2018-10-07T06:38:04.656Z,12.37
2018-10-07T06:39:04.648Z,12.40
2018-10-07T06:40:04.645Z,12.36
2018-10-07T06:41:04.645Z,12.24
2018-10-07T06:42:04.668Z,12.27
2018-10-07T06:43:04.842Z,12.31
2018-10-07T06:44:04.655Z,12.29
2018-10-07T06:45:04.651Z,12.27
2018-10-07T06:46:04.651Z,12.25
2018-10-07T06:47:04.633Z,12.22
2018-10-07T06:48:04.661Z,12.21
2018-10-07T06:49:04.637Z,12.25
2018-10-07T06:50:04.631Z,12.29
2018-10-07T06:51:04.643Z,12.21
2018-10-07T06:52:04.641Z,12.27
2018-10-07T06:53:04.640Z,12.17
2018-10-07T06:54:04.624Z,12.15
2018-10-07T06:55:04.635Z,12.18
2018-10-07T06:56:04.633Z,12.13
2018-10-07T06:57:04.620Z,12.17
2018-10-07T06:58:04.630Z,12.12
2018-10-07T06:59:04.821Z,12.10
2018-10-07T07:00:04.621Z,12.13
2018-10-07T07:01:04.616Z,12.17
2018-10-07T07:02:04.615Z,12.17
2018-10-07T07:03:04.842Z,12.17
2018-10-07T07:04:04.843Z,12.03
2018-10-07T07:05:04.607Z,12.15
2018-10-07T07:06:04.617Z,12.06
2018-10-07T07:07:04.631Z,12.06
2018-10-07T07:08:04.603Z,12.09
2018-10-07T07:09:04.826Z,12.12
2018-10-07T07:10:04.599Z,11.94
2018-10-07T07:11:04.604Z,12.00
2018-10-07T07:12:04.600Z,11.97
2018-10-07T07:13:04.697Z,11.91
2018-10-07T07:14:04.595Z,11.99
2018-10-07T07:15:04.796Z,11.95
2018-10-07T07:16:04.590Z,11.99
2018-10-07T07:17:04.615Z,11.95
2018-10-07T07:18:04.599Z,12.00
2018-10-07T07:19:04.602Z,12.00
2018-10-07T07:20:04.627Z,11.94
2018-10-07T07:21:04.581Z,12.02
2018-10-07T07:22:04.592Z,11.90
2018-10-07T07:23:04.579Z,11.87
2018-10-07T07:24:04.594Z,11.95
2018-10-07T07:25:04.592Z,11.88
2018-10-07T07:26:04.585Z,11.84
2018-10-07T07:27:04.572Z,11.90
2018-10-07T07:28:04.778Z,11.83
2018-10-07T07:29:04.579Z,11.77
2018-10-07T07:30:04.588Z,11.87
2018-10-07T07:31:04.779Z,11.83
2018-10-07T07:32:04.572Z,11.78
2018-10-07T07:33:04.563Z,11.84
2018-10-07T07:34:04.564Z,11.87
2018-10-07T07:35:04.558Z,11.84
2018-10-07T07:36:04.557Z,11.83
2018-10-07T07:37:04.570Z,11.84
2018-10-07T07:38:04.566Z,11.84
2018-10-07T07:39:04.571Z,11.83
2018-10-07T07:40:04.567Z,11.84
2018-10-07T07:41:04.565Z,11.75
2018-10-07T07:42:04.762Z,11.80
2018-10-07T07:43:04.764Z,11.72
2018-10-07T07:44:04.559Z,11.77
2018-10-07T07:45:04.542Z,11.78
2018-10-07T07:46:04.554Z,11.75
2018-10-07T07:47:04.563Z,11.83
2018-10-07T07:48:04.550Z,11.81
2018-10-07T07:49:04.607Z,11.80
2018-10-07T07:50:04.737Z,11.80
2018-10-07T07:51:04.542Z,11.73
2018-10-07T07:52:04.597Z,11.75
2018-10-07T07:53:04.540Z,11.78
2018-10-07T07:54:04.528Z,11.81
2018-10-07T07:55:04.525Z,11.78
2018-10-07T07:56:04.538Z,11.84
2018-10-07T07:57:04.548Z,11.81
2018-10-07T07:58:04.528Z,11.88
2018-10-07T07:59:04.546Z,11.86
2018-10-07T08:00:04.720Z,11.84
2018-10-07T08:01:04.533Z,12.00
2018-10-07T08:02:04.527Z,11.95
2018-10-07T08:03:04.535Z,11.99
2018-10-07T08:04:04.711Z,12.00
2018-10-07T08:05:04.518Z,12.00
2018-10-07T08:06:04.515Z,12.04
2018-10-07T08:07:04.721Z,12.06
2018-10-07T08:08:04.709Z,11.95
2018-10-07T08:09:04.498Z,11.97
2018-10-07T08:10:04.501Z,11.97
2018-10-07T08:11:04.509Z,12.03
2018-10-07T08:12:04.497Z,11.91
2018-10-07T08:13:04.506Z,12.10
2018-10-07T08:14:04.693Z,11.94
2018-10-07T08:15:04.492Z,12.07
2018-10-07T08:16:04.506Z,12.04
2018-10-07T08:17:04.487Z,12.15
2018-10-07T08:18:04.498Z,12.18
2018-10-07T08:19:04.496Z,12.15
2018-10-07T08:20:04.496Z,12.17
2018-10-07T08:21:04.485Z,12.17
2018-10-07T08:22:04.478Z,12.25
2018-10-07T08:23:04.501Z,12.24
2018-10-07T08:24:04.490Z,12.31
2018-10-07T08:25:04.475Z,12.24
2018-10-07T08:26:04.483Z,12.22
2018-10-07T08:27:04.503Z,12.28
2018-10-07T08:28:04.480Z,12.22
2018-10-07T08:29:04.471Z,12.24
2018-10-07T08:30:04.466Z,12.28
2018-10-07T08:31:04.671Z,12.28
2018-10-07T08:32:04.480Z,12.25
2018-10-07T08:33:04.471Z,12.29
2018-10-07T08:34:04.472Z,12.28
2018-10-07T08:35:04.512Z,12.28
2018-10-07T08:36:04.478Z,12.29
2018-10-07T08:37:04.455Z,12.21
2018-10-07T08:38:04.464Z,12.25
2018-10-07T08:39:04.457Z,12.25
2018-10-07T08:40:04.463Z,12.31
2018-10-07T08:41:04.467Z,12.31
2018-10-07T08:42:04.463Z,12.32
2018-10-07T08:43:04.450Z,12.36
2018-10-07T08:44:04.470Z,12.42
2018-10-07T08:45:04.447Z,12.43
2018-10-07T08:46:04.444Z,12.40
2018-10-07T08:47:04.441Z,12.39
2018-10-07T08:48:04.461Z,12.40
2018-10-07T08:49:04.465Z,12.42
2018-10-07T08:50:04.456Z,12.42
2018-10-07T08:51:04.449Z,12.39
2018-10-07T08:52:04.452Z,12.37
2018-10-07T08:53:04.436Z,12.42
2018-10-07T08:54:04.639Z,12.40
2018-10-07T08:55:04.634Z,12.40
2018-10-07T08:56:04.527Z,12.40
2018-10-07T08:57:04.454Z,12.37
2018-10-07T08:58:04.438Z,12.35
2018-10-07T08:59:04.444Z,12.31
2018-10-07T09:00:04.441Z,12.32
2018-10-07T09:01:04.439Z,12.43
2018-10-07T09:02:04.469Z,12.42
2018-10-07T09:03:04.448Z,12.39
2018-10-07T09:04:04.420Z,12.39
2018-10-07T09:05:04.432Z,12.47
2018-10-07T09:06:04.634Z,12.40
2018-10-07T09:07:04.417Z,12.39
2018-10-07T09:08:04.416Z,12.32
2018-10-07T09:09:04.417Z,12.40
2018-10-07T09:10:04.411Z,12.39
2018-10-07T09:11:04.639Z,12.45
2018-10-07T09:12:04.422Z,12.47
2018-10-07T09:13:04.413Z,12.54
2018-10-07T09:14:04.408Z,12.40
2018-10-07T09:15:04.611Z,12.50
2018-10-07T09:16:04.410Z,12.39
2018-10-07T09:17:04.414Z,12.42
2018-10-07T09:18:04.404Z,12.55
2018-10-07T09:19:04.416Z,12.55
2018-10-07T09:20:04.618Z,12.62
2018-10-07T09:21:04.559Z,12.55
2018-10-07T09:22:04.398Z,12.60
2018-10-07T09:23:04.416Z,12.62
2018-10-07T09:24:04.421Z,12.64
2018-10-07T09:25:04.399Z,12.68
2018-10-07T09:26:04.600Z,12.67
2018-10-07T09:27:04.473Z,12.73
2018-10-07T09:28:04.607Z,12.65
2018-10-07T09:29:04.408Z,12.61
2018-10-07T09:30:04.391Z,12.61
2018-10-07T09:31:04.393Z,12.64
2018-10-07T09:32:04.411Z,12.64
2018-10-07T09:33:04.418Z,12.76
2018-10-07T09:34:04.403Z,12.86
2018-10-07T09:35:04.397Z,12.79
2018-10-07T09:36:04.415Z,12.93
2018-10-07T09:37:04.384Z,12.95
2018-10-07T09:38:04.407Z,13.00
2018-10-07T09:39:04.397Z,12.98
2018-10-07T09:40:04.385Z,13.00
2018-10-07T09:41:04.380Z,12.94
2018-10-07T09:42:04.390Z,13.03
2018-10-07T09:43:04.379Z,13.13
2018-10-07T09:44:04.377Z,13.09
2018-10-07T09:45:04.376Z,13.11
2018-10-07T09:46:04.374Z,12.98
2018-10-07T09:47:04.381Z,13.01
2018-10-07T09:48:04.377Z,12.95
2018-10-07T09:49:04.374Z,13.01
2018-10-07T09:50:04.370Z,13.01
2018-10-07T09:51:04.371Z,12.98
2018-10-07T09:52:04.370Z,13.09
2018-10-07T09:53:04.373Z,13.11
2018-10-07T09:54:04.366Z,13.05
2018-10-07T09:55:04.368Z,13.11
2018-10-07T09:56:04.365Z,13.16
2018-10-07T09:57:04.365Z,13.18
2018-10-07T09:58:04.487Z,13.18
2018-10-07T09:59:04.365Z,13.08
2018-10-07T10:00:04.362Z,13.11
2018-10-07T10:01:04.587Z,13.15
2018-10-07T10:02:04.372Z,13.01
2018-10-07T10:03:04.359Z,13.11
2018-10-07T10:04:04.375Z,13.08
2018-10-07T10:05:04.366Z,13.16
2018-10-07T10:06:04.557Z,13.18
2018-10-07T10:07:04.414Z,13.20
2018-10-07T10:08:04.365Z,13.18
2018-10-07T10:09:04.567Z,13.16
2018-10-07T10:10:04.353Z,13.16
2018-10-07T10:11:04.384Z,13.19
2018-10-07T10:12:04.351Z,13.33
2018-10-07T10:13:04.371Z,13.39
2018-10-07T10:14:04.369Z,13.49
2018-10-07T10:15:04.347Z,13.57
2018-10-07T10:16:04.346Z,13.56
2018-10-07T10:17:04.348Z,13.52
2018-10-07T10:18:04.343Z,13.50
2018-10-07T10:19:04.355Z,13.52
2018-10-07T10:20:04.544Z,13.54
2018-10-07T10:21:04.355Z,13.59
2018-10-07T10:22:04.353Z,13.68
2018-10-07T10:23:04.553Z,13.54
2018-10-07T10:24:04.339Z,13.70
2018-10-07T10:25:04.336Z,13.65
2018-10-07T10:26:04.355Z,13.65
2018-10-07T10:27:04.333Z,13.56
2018-10-07T10:28:04.347Z,13.65
2018-10-07T10:29:04.333Z,13.60
2018-10-07T10:30:04.380Z,13.62
2018-10-07T10:31:04.350Z,13.62
2018-10-07T10:32:04.535Z,13.79
2018-10-07T10:33:04.341Z,13.74
2018-10-07T10:34:04.338Z,13.77
2018-10-07T10:35:04.334Z,13.77
2018-10-07T10:36:04.338Z,13.78
2018-10-07T10:37:04.321Z,13.75
2018-10-07T10:38:04.337Z,13.86
2018-10-07T10:39:04.335Z,13.95
2018-10-07T10:40:04.634Z,13.87
2018-10-07T10:41:04.318Z,13.92
2018-10-07T10:42:04.318Z,13.87
2018-10-07T10:43:04.334Z,13.92
2018-10-07T10:44:04.520Z,13.92
2018-10-07T10:45:04.315Z,13.96
2018-10-07T10:46:04.326Z,14.03
2018-10-07T10:47:04.331Z,14.12
2018-10-07T10:48:04.396Z,14.17
2018-10-07T10:49:04.313Z,14.26
2018-10-07T10:50:04.315Z,14.33
2018-10-07T10:51:04.333Z,14.33
2018-10-07T10:52:04.311Z,14.32
2018-10-07T10:53:04.514Z,14.45
2018-10-07T10:54:04.310Z,14.37
2018-10-07T10:55:04.371Z,14.48
2018-10-07T10:56:04.315Z,14.47
2018-10-07T10:57:04.325Z,14.53
2018-10-07T10:58:04.307Z,14.54
2018-10-07T10:59:04.320Z,14.50
2018-10-07T11:00:04.306Z,14.68
2018-10-07T11:01:04.359Z,14.66
2018-10-07T11:02:04.305Z,14.73
2018-10-07T11:03:04.315Z,14.73
2018-10-07T11:04:04.305Z,14.70
2018-10-07T11:05:04.307Z,14.54
2018-10-07T11:06:04.323Z,14.43
2018-10-07T11:07:04.321Z,14.36
2018-10-07T11:08:04.504Z,14.26
2018-10-07T11:09:04.313Z,14.29
2018-10-07T11:10:04.307Z,14.26
2018-10-07T11:11:04.307Z,14.22
2018-10-07T11:12:04.312Z,14.20
2018-10-07T11:13:04.337Z,14.18
2018-10-07T11:14:04.300Z,14.15
2018-10-07T11:15:04.515Z,14.17
2018-10-07T11:16:04.311Z,14.28
2018-10-07T11:17:04.326Z,14.30
2018-10-07T11:18:04.296Z,14.45
2018-10-07T11:19:04.295Z,14.45
2018-10-07T11:20:04.321Z,14.33
2018-10-07T11:21:04.303Z,14.26
2018-10-07T11:22:04.292Z,14.17
2018-10-07T11:23:04.316Z,14.23
2018-10-07T11:24:04.298Z,14.23
2018-10-07T11:25:04.295Z,14.22
2018-10-07T11:26:04.538Z,14.28
2018-10-07T11:27:04.494Z,14.22
2018-10-07T11:28:04.504Z,14.18
2018-10-07T11:29:04.300Z,14.18
2018-10-07T11:30:04.287Z,14.18
2018-10-07T11:31:04.298Z,14.25
2018-10-07T11:32:04.488Z,14.15
2018-10-07T11:33:04.283Z,14.20
2018-10-07T11:34:04.284Z,14.32
2018-10-07T11:35:04.284Z,14.35
2018-10-07T11:36:04.294Z,14.45
2018-10-07T11:37:04.281Z,14.40
2018-10-07T11:38:04.293Z,14.45
2018-10-07T11:39:04.279Z,14.32
2018-10-07T11:40:04.281Z,14.30
2018-10-07T11:41:04.278Z,14.28
2018-10-07T11:42:04.280Z,14.44
2018-10-07T11:43:04.276Z,14.45
2018-10-07T11:44:04.279Z,14.37
2018-10-07T11:45:04.282Z,14.51
2018-10-07T11:46:04.284Z,14.51
2018-10-07T11:47:04.275Z,14.53
2018-10-07T11:48:04.318Z,14.51
2018-10-07T11:49:04.273Z,14.50
2018-10-07T11:50:04.289Z,14.51
2018-10-07T11:51:04.279Z,14.66
2018-10-07T11:52:04.274Z,14.53
2018-10-07T11:53:04.272Z,14.48
2018-10-07T11:54:04.273Z,14.50
2018-10-07T11:55:04.279Z,14.53
2018-10-07T11:56:04.268Z,14.65
2018-10-07T11:57:04.269Z,14.60
2018-10-07T11:58:04.288Z,14.54
2018-10-07T11:59:04.266Z,14.48
2018-10-07T12:00:04.294Z,14.47
2018-10-07T12:01:04.266Z,14.51
2018-10-07T12:02:04.320Z,14.53
2018-10-07T12:03:04.272Z,14.51
2018-10-07T12:04:04.276Z,14.47
2018-10-07T12:05:04.272Z,14.53
2018-10-07T12:06:04.264Z,14.40
2018-10-07T12:07:04.261Z,14.47
2018-10-07T12:08:04.286Z,14.50
2018-10-07T12:09:04.258Z,14.62
2018-10-07T12:10:04.290Z,14.62
2018-10-07T12:11:04.270Z,14.73
2018-10-07T12:12:04.474Z,14.72
2018-10-07T12:13:04.270Z,14.73
2018-10-07T12:14:04.256Z,14.72
2018-10-07T12:15:04.269Z,14.70
2018-10-07T12:16:04.456Z,14.68
2018-10-07T12:17:04.281Z,14.69
2018-10-07T12:18:04.466Z,14.69
2018-10-07T12:19:04.266Z,14.63
2018-10-07T12:20:04.267Z,14.73
2018-10-07T12:21:04.267Z,14.73
2018-10-07T12:22:04.255Z,14.73
2018-10-07T12:23:04.274Z,14.65
2018-10-07T12:24:04.254Z,14.62
2018-10-07T12:25:04.270Z,14.72
2018-10-07T12:26:04.259Z,14.70
2018-10-07T12:27:04.258Z,14.66
2018-10-07T12:28:04.247Z,14.69
2018-10-07T12:29:04.277Z,14.68
2018-10-07T12:30:04.246Z,14.73
2018-10-07T12:31:04.263Z,14.78
2018-10-07T12:32:04.407Z,14.77
2018-10-07T12:33:04.455Z,14.65
2018-10-07T12:34:04.248Z,14.72
2018-10-07T12:35:04.245Z,14.79
2018-10-07T12:36:04.243Z,14.92
2018-10-07T12:37:04.263Z,14.79
2018-10-07T12:38:04.247Z,14.86
2018-10-07T12:39:04.242Z,14.88
2018-10-07T12:40:04.254Z,14.86
2018-10-07T12:41:04.245Z,14.91
2018-10-07T12:42:04.238Z,14.88
2018-10-07T12:43:04.237Z,14.92
2018-10-07T12:44:04.247Z,14.88
2018-10-07T12:45:04.455Z,14.84
2018-10-07T12:46:04.237Z,14.89
2018-10-07T12:47:04.235Z,14.91
2018-10-07T12:48:04.264Z,14.85
2018-10-07T12:49:04.236Z,14.92
2018-10-07T12:50:04.331Z,14.92
2018-10-07T12:51:04.471Z,14.92
2018-10-07T12:52:04.243Z,14.94